createdAt,value
2023-03-02T00:02:22.500Z,20.40
2023-03-02T00:04:55.033Z,20.40
2023-03-02T00:07:27.452Z,20.40
2023-03-02T00:09:55.086Z,20.40
2023-03-02T00:12:21.910Z,20.50
2023-03-02T00:14:48.495Z,20.50
2023-03-02T00:17:15.228Z,20.50
2023-03-02T00:19:41.976Z,20.40
2023-03-02T00:22:10.153Z,20.50
2023-03-02T00:24:37.839Z,20.50
2023-03-02T00:27:04.567Z,20.50
2023-03-02T00:29:31.233Z,20.50
2023-03-02T00:31:57.988Z,20.50
2023-03-02T00:34:24.626Z,20.50
2023-03-02T00:36:51.297Z,20.50
2023-03-02T00:39:20.119Z,20.50
2023-03-02T00:41:48.317Z,20.50
2023-03-02T00:44:17.459Z,20.50
2023-03-02T00:46:45.066Z,20.50
2023-03-02T00:49:12.544Z,20.50
2023-03-02T00:51:39.336Z,20.60
2023-03-02T00:54:06.247Z,20.50
2023-03-02T00:56:33.434Z,20.60
2023-03-02T00:59:05.562Z,20.60
2023-03-02T01:01:32.378Z,20.60
2023-03-02T01:03:59.257Z,20.60
2023-03-02T01:06:26.269Z,20.60
2023-03-02T01:08:53.214Z,20.60
2023-03-02T01:11:22.172Z,20.60
2023-03-02T01:13:50.353Z,20.60
2023-03-02T01:16:17.251Z,20.60
2023-03-02T01:18:44.001Z,20.60
2023-03-02T01:21:15.934Z,20.60
2023-03-02T01:23:44.085Z,20.60
2023-03-02T01:26:11.109Z,20.70
2023-03-02T01:28:37.733Z,20.60
2023-03-02T01:31:04.838Z,20.70
2023-03-02T01:33:32.301Z,20.70
2023-03-02T01:35:59.078Z,20.70
2023-03-02T01:38:26.125Z,20.70
2023-03-02T01:44:44.574Z,20.70
2023-03-02T01:47:25.434Z,20.70
2023-03-02T01:50:17.584Z,20.70
2023-03-02T01:52:44.274Z,20.70
2023-03-02T01:55:14.888Z,20.70
2023-03-02T01:57:46.569Z,20.80
2023-03-02T02:00:21.885Z,20.70
2023-03-02T02:02:49.498Z,20.70
2023-03-02T02:05:23.047Z,20.80
2023-03-02T02:07:49.841Z,20.80
2023-03-02T02:10:17.075Z,20.80
2023-03-02T02:12:43.836Z,20.80
2023-03-02T02:15:11.030Z,20.80
2023-03-02T02:17:37.650Z,20.80
2023-03-02T02:20:13.156Z,20.80
2023-03-02T02:22:54.604Z,20.80
2023-03-02T02:25:33.006Z,20.80
2023-03-02T02:28:00.178Z,20.80
2023-03-02T02:30:27.786Z,20.80
2023-03-02T02:32:55.342Z,20.80
2023-03-02T02:35:27.381Z,20.80
2023-03-02T02:37:56.340Z,20.80
2023-03-02T02:40:58.452Z,20.80
2023-03-02T02:43:27.592Z,20.80
2023-03-02T02:45:56.507Z,20.80
2023-03-02T02:48:25.309Z,20.90
2023-03-02T02:51:00.206Z,20.90
2023-03-02T02:53:48.512Z,20.90
2023-03-02T02:56:17.016Z,20.90
2023-03-02T02:58:48.513Z,20.90
2023-03-02T03:01:17.558Z,20.90
2023-03-02T03:03:53.974Z,20.90
2023-03-02T03:06:25.805Z,20.90
2023-03-02T03:08:56.283Z,20.90
2023-03-02T03:11:29.467Z,20.90
2023-03-02T03:14:08.523Z,21.00
2023-03-02T03:16:37.050Z,20.90
2023-03-02T03:19:10.302Z,21.00
2023-03-02T03:21:37.038Z,21.00
2023-03-02T03:24:03.937Z,21.00
2023-03-02T03:26:30.922Z,21.00
2023-03-02T03:28:57.866Z,21.00
2023-03-02T03:31:26.739Z,21.00
2023-03-02T03:33:54.880Z,21.00
2023-03-02T03:36:22.774Z,21.00
2023-03-02T03:38:49.437Z,21.00
2023-03-02T03:41:16.409Z,21.00
2023-03-02T03:43:43.097Z,21.00
2023-03-02T03:46:10.163Z,21.10
2023-03-02T03:48:36.901Z,21.00
2023-03-02T03:51:04.073Z,21.10
2023-03-02T03:53:31.044Z,21.00
2023-03-02T03:55:57.700Z,21.00
2023-03-02T03:58:25.417Z,21.00
2023-03-02T04:00:52.996Z,21.00
2023-03-02T04:03:20.313Z,21.10
2023-03-02T04:05:47.994Z,21.10
2023-03-02T04:08:14.597Z,21.10
2023-03-02T04:10:41.552Z,21.10
2023-03-02T04:13:08.591Z,21.10
2023-03-02T04:15:35.929Z,21.10
2023-03-02T04:18:02.924Z,21.10
2023-03-02T04:20:30.262Z,21.10
2023-03-02T04:22:58.023Z,21.10
2023-03-02T04:25:27.599Z,21.10
2023-03-02T04:27:54.773Z,21.10
2023-03-02T04:30:25.139Z,21.10
2023-03-02T04:32:51.760Z,21.10
2023-03-02T04:35:18.747Z,21.20
2023-03-02T04:37:46.964Z,21.10
2023-03-02T04:40:14.812Z,21.20
2023-03-02T04:42:41.774Z,21.10
2023-03-02T04:45:09.009Z,21.10
2023-03-02T04:47:35.767Z,21.20
2023-03-02T04:50:02.517Z,21.20
2023-03-02T04:52:29.135Z,21.20
2023-03-02T04:54:56.001Z,21.20
2023-03-02T04:57:22.669Z,21.20
2023-03-02T04:59:49.313Z,21.20
2023-03-02T05:02:16.015Z,21.20
2023-03-02T05:04:42.765Z,21.20
2023-03-02T05:07:09.456Z,21.20
2023-03-02T05:09:36.129Z,21.20
2023-03-02T05:12:02.879Z,21.30
2023-03-02T05:14:31.505Z,21.20
2023-03-02T05:16:58.282Z,21.20
2023-03-02T05:19:24.883Z,21.20
2023-03-02T05:21:51.506Z,21.30
2023-03-02T05:24:18.202Z,21.30
2023-03-02T05:26:44.856Z,21.30
2023-03-02T05:29:11.461Z,21.30
2023-03-02T05:31:43.922Z,21.30
2023-03-02T05:34:13.781Z,21.30
2023-03-02T05:36:40.702Z,21.30
2023-03-02T05:39:07.948Z,21.30
2023-03-02T05:41:35.682Z,21.30
2023-03-02T05:44:02.692Z,21.30
2023-03-02T05:46:29.462Z,21.40
2023-03-02T05:48:56.222Z,19.30
2023-03-02T05:51:23.100Z,16.70
2023-03-02T05:56:17.078Z,14.70
2023-03-02T05:58:43.782Z,14.30
2023-03-02T06:03:42.511Z,13.60
2023-03-02T06:06:13.744Z,13.40
2023-03-02T06:08:42.751Z,15.00
2023-03-02T06:11:10.125Z,16.50
2023-03-02T06:13:37.295Z,17.50
2023-03-02T06:16:04.381Z,18.20
2023-03-02T06:18:31.224Z,18.60
2023-03-02T06:20:58.074Z,18.90
2023-03-02T06:23:24.774Z,19.20
2023-03-02T06:25:51.517Z,19.30
2023-03-02T06:28:19.904Z,19.40
2023-03-02T06:30:48.639Z,19.60
2023-03-02T06:33:21.051Z,19.70
2023-03-02T06:35:48.309Z,19.70
2023-03-02T06:38:14.926Z,19.80
2023-03-02T06:40:41.503Z,19.80
2023-03-02T06:43:08.046Z,19.90
2023-03-02T06:45:34.771Z,19.90
2023-03-02T06:48:02.288Z,20.00
2023-03-02T06:50:28.925Z,20.00
2023-03-02T06:52:55.537Z,20.00
2023-03-02T06:55:22.706Z,20.10
2023-03-02T06:57:49.266Z,20.10
2023-03-02T07:00:17.519Z,20.10
2023-03-02T07:02:45.158Z,20.20
2023-03-02T07:05:11.972Z,20.20
2023-03-02T07:07:38.877Z,20.20
2023-03-02T07:10:07.422Z,20.20
2023-03-02T07:12:34.145Z,20.20
2023-03-02T07:15:00.950Z,20.30
2023-03-02T07:17:27.522Z,20.30
2023-03-02T07:19:54.259Z,20.40
2023-03-02T07:22:20.842Z,20.40
2023-03-02T07:24:47.453Z,20.30
2023-03-02T07:27:14.049Z,20.40
2023-03-02T07:29:40.621Z,20.40
2023-03-02T07:32:07.309Z,20.40
2023-03-02T07:34:33.973Z,20.40
2023-03-02T07:37:00.637Z,20.40
2023-03-02T07:39:27.349Z,20.40
2023-03-02T07:41:58.114Z,20.40
2023-03-02T07:44:24.707Z,20.50
2023-03-02T07:46:51.451Z,21.30
2023-03-02T07:49:18.338Z,20.80
2023-03-02T07:51:44.889Z,20.60
2023-03-02T07:54:11.516Z,20.50
2023-03-02T07:56:38.095Z,20.40
2023-03-02T07:59:04.671Z,20.50
2023-03-02T08:01:31.806Z,20.50
2023-03-02T08:03:58.709Z,20.50
2023-03-02T08:06:25.362Z,20.50
2023-03-02T08:08:51.981Z,20.50
2023-03-02T08:11:19.295Z,20.60
2023-03-02T08:13:46.665Z,20.60
2023-03-02T08:16:15.138Z,20.50
2023-03-02T08:18:42.520Z,20.60
2023-03-02T08:21:19.915Z,20.50
2023-03-02T08:23:46.654Z,20.60
2023-03-02T08:26:17.076Z,20.60
2023-03-02T08:28:44.391Z,20.60
2023-03-02T08:31:11.865Z,20.60
2023-03-02T08:33:38.838Z,20.60
2023-03-02T08:36:09.288Z,20.60
2023-03-02T08:38:36.486Z,20.60
2023-03-02T08:41:06.520Z,20.60
2023-03-02T08:43:33.747Z,20.60
2023-03-02T08:46:00.673Z,20.60
2023-03-02T08:48:28.330Z,20.60
2023-03-02T08:51:22.873Z,20.70
2023-03-02T08:53:51.625Z,20.60
2023-03-02T08:56:30.011Z,20.70
2023-03-02T08:59:00.161Z,20.60
2023-03-02T09:01:29.894Z,20.60
2023-03-02T09:03:59.645Z,20.70
2023-03-02T09:06:28.284Z,20.70
2023-03-02T09:08:55.294Z,20.60
2023-03-02T09:11:21.920Z,20.70
2023-03-02T09:13:48.521Z,20.70
2023-03-02T09:16:15.354Z,20.70
2023-03-02T09:18:42.361Z,20.70
2023-03-02T09:21:09.356Z,20.70
2023-03-02T09:23:36.540Z,20.70
2023-03-02T09:26:04.648Z,20.70
2023-03-02T09:28:31.563Z,20.70
2023-03-02T09:30:59.834Z,20.70
2023-03-02T09:33:27.338Z,20.70
2023-03-02T09:35:53.968Z,20.70
2023-03-02T09:38:21.248Z,20.70
2023-03-02T09:41:09.374Z,20.70
2023-03-02T09:43:38.937Z,20.70
2023-03-02T09:46:12.395Z,20.60
2023-03-02T09:48:45.016Z,20.70
2023-03-02T09:51:27.479Z,20.70
2023-03-02T09:54:10.923Z,20.70
2023-03-02T09:56:43.724Z,20.70
2023-03-02T09:59:24.630Z,20.70
2023-03-02T10:02:23.333Z,20.70
2023-03-02T10:04:54.237Z,20.70
2023-03-02T10:07:31.487Z,20.70
2023-03-02T10:10:18.327Z,20.70
2023-03-02T10:13:21.204Z,20.70
2023-03-02T10:16:18.165Z,20.70
2023-03-02T10:18:58.860Z,20.70
2023-03-02T10:21:32.087Z,20.80
2023-03-02T10:24:05.925Z,20.70
2023-03-02T10:26:59.890Z,20.70
2023-03-02T10:29:41.433Z,20.70
2023-03-02T10:32:21.812Z,20.70
2023-03-02T10:34:50.872Z,20.70
2023-03-02T10:37:25.204Z,20.70
2023-03-02T10:39:52.833Z,20.70
2023-03-02T10:42:36.877Z,20.80
2023-03-02T10:45:23.536Z,20.70
2023-03-02T10:48:03.553Z,20.70
2023-03-02T10:50:30.634Z,20.70
2023-03-02T10:53:00.774Z,20.70
2023-03-02T10:55:29.268Z,20.70
2023-03-02T10:58:02.675Z,20.70
2023-03-02T11:00:31.158Z,20.70
2023-03-02T11:03:03.754Z,20.80
2023-03-02T11:05:33.608Z,20.80
2023-03-02T11:08:03.166Z,20.70
2023-03-02T11:10:34.138Z,20.70
2023-03-02T11:13:03.023Z,20.70
2023-03-02T11:15:32.606Z,20.70
2023-03-02T11:18:06.771Z,20.70
2023-03-02T11:20:38.522Z,20.70
2023-03-02T11:23:17.176Z,20.70
2023-03-02T11:25:55.426Z,20.70
2023-03-02T11:28:34.728Z,20.70
2023-03-02T11:31:05.340Z,20.80
2023-03-02T11:33:42.498Z,20.90
2023-03-02T11:36:23.707Z,20.70
2023-03-02T11:38:55.986Z,20.70
2023-03-02T11:41:33.132Z,20.50
2023-03-02T11:44:14.084Z,20.80
2023-03-02T11:46:44.133Z,20.70
2023-03-02T11:49:25.318Z,20.70
2023-03-02T11:52:00.468Z,20.80
2023-03-02T11:54:36.527Z,20.70
2023-03-02T11:57:04.096Z,20.80
2023-03-02T11:59:31.951Z,20.70
2023-03-02T12:02:00.500Z,20.70
2023-03-02T12:04:33.779Z,20.80
2023-03-02T12:07:04.031Z,20.70
2023-03-02T12:09:34.999Z,20.80
2023-03-02T12:12:20.189Z,20.80
2023-03-02T12:14:46.760Z,20.80
2023-03-02T12:17:25.167Z,20.80
2023-03-02T12:19:54.442Z,20.70
2023-03-02T12:22:32.019Z,20.80
2023-03-02T12:25:00.945Z,20.80
2023-03-02T12:27:34.208Z,20.70
2023-03-02T12:30:00.797Z,20.80
2023-03-02T12:32:30.611Z,20.70
2023-03-02T12:35:09.142Z,20.80
2023-03-02T12:37:57.058Z,20.70
2023-03-02T12:40:44.785Z,20.80
2023-03-02T12:43:22.972Z,20.80
2023-03-02T12:45:59.384Z,20.70
2023-03-02T12:48:51.417Z,20.80
2023-03-02T12:51:22.183Z,20.80
2023-03-02T12:53:50.366Z,20.70
2023-03-02T12:56:24.935Z,20.70
2023-03-02T12:58:53.396Z,20.70
2023-03-02T13:01:26.926Z,20.70
2023-03-02T13:03:54.735Z,20.80
2023-03-02T13:06:24.178Z,20.80
2023-03-02T13:08:55.332Z,20.80
2023-03-02T13:11:31.026Z,20.80
2023-03-02T13:13:59.399Z,20.80
2023-03-02T13:16:32.404Z,20.80
2023-03-02T13:19:05.478Z,20.80
2023-03-02T13:21:38.137Z,20.80
2023-03-02T13:24:28.923Z,20.80
2023-03-02T13:27:03.856Z,20.80
2023-03-02T13:29:31.747Z,20.80
2023-03-02T13:32:25.049Z,20.80
2023-03-02T13:35:02.810Z,20.80
2023-03-02T13:37:40.504Z,20.80
2023-03-02T13:40:27.176Z,20.80
2023-03-02T13:42:54.370Z,20.80
2023-03-02T13:45:32.324Z,20.80
2023-03-02T13:48:11.692Z,20.80
2023-03-02T13:50:38.605Z,20.80
2023-03-02T13:53:07.077Z,20.70
2023-03-02T13:55:34.485Z,20.70
2023-03-02T13:58:01.673Z,20.80
2023-03-02T14:00:33.951Z,20.80
2023-03-02T14:03:01.301Z,20.80
2023-03-02T14:05:33.225Z,20.80
2023-03-02T14:08:00.410Z,20.80
2023-03-02T14:10:27.356Z,20.80
2023-03-02T14:13:07.342Z,20.80
2023-03-02T14:15:36.998Z,20.80
2023-03-02T14:18:03.718Z,20.80
2023-03-02T14:20:30.285Z,20.80
2023-03-02T14:22:56.997Z,20.80
2023-03-02T14:25:24.620Z,20.80
2023-03-02T14:27:51.239Z,20.80
2023-03-02T14:30:20.244Z,20.80
2023-03-02T14:32:47.461Z,20.80
2023-03-02T14:35:16.479Z,20.80
2023-03-02T14:37:48.865Z,20.80
2023-03-02T14:40:25.348Z,20.80
2023-03-02T14:42:52.063Z,20.80
2023-03-02T14:45:20.722Z,20.80
2023-03-02T14:47:48.756Z,20.80
2023-03-02T14:50:16.829Z,20.80
2023-03-02T14:52:49.532Z,20.80
2023-03-02T14:55:25.637Z,20.80
2023-03-02T14:58:17.215Z,20.80
2023-03-02T15:00:45.075Z,20.80
2023-03-02T15:03:16.785Z,20.80
2023-03-02T15:05:51.757Z,20.80
2023-03-02T15:08:25.785Z,20.70
2023-03-02T15:10:53.042Z,20.80
2023-03-02T15:13:19.567Z,20.80
2023-03-02T15:15:46.461Z,20.80
2023-03-02T15:18:16.827Z,20.80
2023-03-02T15:20:43.378Z,20.90
2023-03-02T15:23:09.931Z,20.80
2023-03-02T15:25:36.562Z,20.80
2023-03-02T15:28:04.583Z,20.80
2023-03-02T15:30:31.132Z,20.90
2023-03-02T15:32:59.370Z,20.80
2023-03-02T15:35:27.900Z,20.90
2023-03-02T15:37:55.590Z,20.80
2023-03-02T15:40:22.154Z,20.80
2023-03-02T15:42:48.933Z,20.90
2023-03-02T15:45:15.565Z,20.90
2023-03-02T15:47:42.214Z,20.80
2023-03-02T15:50:09.716Z,20.80
2023-03-02T15:52:36.282Z,20.90
2023-03-02T15:55:03.265Z,20.90
2023-03-02T15:57:29.860Z,20.90
2023-03-02T15:59:56.549Z,20.90
2023-03-02T16:02:23.091Z,20.90
2023-03-02T16:04:49.638Z,20.90
2023-03-02T16:07:16.245Z,20.90
2023-03-02T16:09:45.199Z,20.90
2023-03-02T16:12:11.859Z,20.90
2023-03-02T16:14:38.568Z,20.90
2023-03-02T16:17:05.306Z,20.90
2023-03-02T16:19:32.288Z,20.90
2023-03-02T16:21:58.961Z,20.80
2023-03-02T16:24:25.603Z,20.90
2023-03-02T16:26:53.135Z,20.10
2023-03-02T16:29:19.732Z,19.40
2023-03-02T16:31:47.530Z,18.90
2023-03-02T16:34:14.500Z,18.60
2023-03-02T16:36:42.016Z,19.10
2023-03-02T16:39:10.125Z,19.60
2023-03-02T16:41:38.856Z,20.00
2023-03-02T16:44:06.013Z,20.10
2023-03-02T16:46:36.263Z,20.30
2023-03-02T16:49:04.165Z,20.40
2023-03-02T16:51:30.873Z,20.40
2023-03-02T16:53:58.090Z,20.50
2023-03-02T16:56:25.146Z,20.50
2023-03-02T16:58:51.761Z,20.50
2023-03-02T17:01:20.999Z,20.60
2023-03-02T17:03:49.868Z,20.60
2023-03-02T17:06:19.477Z,20.70
2023-03-02T17:08:46.425Z,20.70
2023-03-02T17:11:13.151Z,20.70
2023-03-02T17:13:40.223Z,20.70
2023-03-02T17:16:07.302Z,19.90
2023-03-02T17:18:34.736Z,19.20
2023-03-02T17:21:01.981Z,19.00
2023-03-02T17:23:29.111Z,19.50
2023-03-02T17:25:56.182Z,19.80
2023-03-02T17:28:23.104Z,20.00
2023-03-02T17:30:49.831Z,20.20
2023-03-02T17:33:17.091Z,20.20
2023-03-02T17:35:43.924Z,20.30
2023-03-02T17:38:11.399Z,20.40
2023-03-02T17:40:38.145Z,20.50
2023-03-02T17:43:04.769Z,20.50
2023-03-02T17:45:31.410Z,20.60
2023-03-02T17:47:58.846Z,20.70
2023-03-02T17:50:27.075Z,20.80
2023-03-02T17:52:54.151Z,20.90
2023-03-02T17:55:20.956Z,21.00
2023-03-02T17:57:47.668Z,21.10
2023-03-02T18:00:18.727Z,21.10
2023-03-02T18:02:45.623Z,21.10
2023-03-02T18:05:12.812Z,21.20
2023-03-02T18:07:39.694Z,21.20
2023-03-02T18:10:07.300Z,21.20
2023-03-02T18:12:34.695Z,21.20
2023-03-02T18:15:01.535Z,21.20
2023-03-02T18:17:28.300Z,21.30
2023-03-02T18:19:54.870Z,21.10
2023-03-02T18:22:21.968Z,21.20
2023-03-02T18:24:50.333Z,21.20
2023-03-02T18:27:17.134Z,21.20
2023-03-02T18:29:43.802Z,21.40
2023-03-02T18:32:11.430Z,21.30
2023-03-02T18:34:38.210Z,21.20
2023-03-02T18:37:04.776Z,21.30
2023-03-02T18:39:31.574Z,21.30
2023-03-02T18:41:58.149Z,21.40
2023-03-02T18:44:27.879Z,21.30
2023-03-02T18:46:55.509Z,21.40
2023-03-02T18:49:23.335Z,21.40
2023-03-02T18:51:50.116Z,21.40
2023-03-02T18:54:16.843Z,21.40
2023-03-02T18:56:43.552Z,21.30
2023-03-02T18:59:10.992Z,21.40
2023-03-02T19:01:37.788Z,21.50
2023-03-02T19:04:05.252Z,21.40
2023-03-02T19:06:33.112Z,21.40
2023-03-02T19:08:59.830Z,21.70
2023-03-02T19:11:26.930Z,21.30
2023-03-02T19:13:53.607Z,21.00
2023-03-02T19:16:20.327Z,21.00
2023-03-02T19:18:46.987Z,21.10
2023-03-02T19:21:13.587Z,21.00
2023-03-02T19:23:41.047Z,21.00
2023-03-02T19:26:08.313Z,21.00
2023-03-02T19:28:37.035Z,21.00
2023-03-02T19:31:06.968Z,21.00
2023-03-02T19:33:33.835Z,21.00
2023-03-02T19:36:00.532Z,21.10
2023-03-02T19:38:29.098Z,21.10
2023-03-02T19:40:57.893Z,21.00
2023-03-02T19:43:25.922Z,21.00
2023-03-02T19:45:52.705Z,20.90
2023-03-02T19:48:19.936Z,20.90
2023-03-02T19:50:47.173Z,21.00
2023-03-02T19:53:14.633Z,21.00
2023-03-02T19:55:42.909Z,21.00
2023-03-02T19:58:12.640Z,21.00
2023-03-02T20:00:39.446Z,20.90
2023-03-02T20:03:08.369Z,20.90
2023-03-02T20:05:36.397Z,20.90
2023-03-02T20:08:03.182Z,20.90
2023-03-02T20:10:34.584Z,20.90
2023-03-02T20:13:01.591Z,20.90
2023-03-02T20:15:29.915Z,20.90
2023-03-02T20:17:58.321Z,20.90
2023-03-02T20:20:26.877Z,20.90
2023-03-02T20:22:53.794Z,20.90
2023-03-02T20:25:21.363Z,20.90
2023-03-02T20:27:51.702Z,21.00
2023-03-02T20:30:27.695Z,21.00
2023-03-02T20:32:56.691Z,21.00
2023-03-02T20:35:24.950Z,20.90
2023-03-02T20:37:52.410Z,20.90
2023-03-02T20:40:19.202Z,20.90
2023-03-02T20:42:45.943Z,20.90
2023-03-02T20:45:13.895Z,20.80
2023-03-02T20:47:42.378Z,20.90
2023-03-02T20:50:13.771Z,20.80
2023-03-02T20:52:40.649Z,20.90
2023-03-02T20:55:08.256Z,20.90
2023-03-02T20:57:35.152Z,20.80
2023-03-02T21:00:06.152Z,20.80
2023-03-02T21:02:32.836Z,20.90
2023-03-02T21:04:59.957Z,20.90
2023-03-02T21:07:26.935Z,20.90
2023-03-02T21:09:53.768Z,20.80
2023-03-02T21:12:20.632Z,20.80
2023-03-02T21:14:47.458Z,20.80
2023-03-02T21:17:14.101Z,20.80
2023-03-02T21:19:40.816Z,20.80
2023-03-02T21:22:07.547Z,20.70
2023-03-02T21:24:34.259Z,20.70
2023-03-02T21:27:01.354Z,20.70
2023-03-02T21:29:28.277Z,20.60
2023-03-02T21:31:55.060Z,20.60
2023-03-02T21:34:22.279Z,20.60
2023-03-02T21:36:53.006Z,20.60
2023-03-02T21:39:23.478Z,20.60
2023-03-02T21:41:50.985Z,20.60
2023-03-02T21:44:18.538Z,20.50
2023-03-02T21:46:45.234Z,20.50
2023-03-02T21:49:16.253Z,20.50
2023-03-02T21:51:42.973Z,20.50
2023-03-02T21:54:10.099Z,20.50
2023-03-02T21:56:37.021Z,20.50
2023-03-02T21:59:04.298Z,20.50
2023-03-02T22:01:32.923Z,20.50
2023-03-02T22:04:01.077Z,20.50
2023-03-02T22:06:30.627Z,20.40
2023-03-02T22:08:58.007Z,20.40
2023-03-02T22:11:28.102Z,20.40
2023-03-02T22:13:58.379Z,20.40
2023-03-02T22:16:37.163Z,20.40
2023-03-02T22:19:19.855Z,20.40
2023-03-02T22:21:49.176Z,20.40
2023-03-02T22:24:29.966Z,20.40
2023-03-02T22:27:08.911Z,20.40
2023-03-02T22:29:44.865Z,20.40
2023-03-02T22:32:21.121Z,20.40
2023-03-02T22:34:50.428Z,20.40
2023-03-02T22:37:26.385Z,20.40
2023-03-02T22:40:00.832Z,20.40
2023-03-02T22:42:30.324Z,20.40
2023-03-02T22:45:15.596Z,20.40
2023-03-02T22:47:43.451Z,20.40
2023-03-02T22:50:21.660Z,20.40
2023-03-02T22:52:48.787Z,20.40
2023-03-02T22:55:36.131Z,20.40
2023-03-02T22:58:36.189Z,20.40
2023-03-02T23:01:03.285Z,20.40
2023-03-02T23:03:39.745Z,20.30
2023-03-02T23:06:27.116Z,20.40
2023-03-02T23:08:59.939Z,20.40
2023-03-02T23:11:27.456Z,20.40
2023-03-02T23:13:55.266Z,20.40
2023-03-02T23:16:25.373Z,20.40
2023-03-02T23:18:54.868Z,20.40
2023-03-02T23:21:23.220Z,20.40
2023-03-02T23:23:50.859Z,20.40
2023-03-02T23:26:19.379Z,20.40
2023-03-02T23:28:48.028Z,20.40
2023-03-02T23:31:15.566Z,20.30
2023-03-02T23:33:42.390Z,20.40
2023-03-02T23:36:09.137Z,20.30
2023-03-02T23:38:35.890Z,20.30
2023-03-02T23:41:02.727Z,20.30
2023-03-02T23:43:29.409Z,20.30
2023-03-02T23:45:56.242Z,20.30
2023-03-02T23:48:23.787Z,20.30
2023-03-02T23:50:50.399Z,20.30
2023-03-02T23:53:17.480Z,20.30
2023-03-02T23:55:48.937Z,20.30
2023-03-02T23:58:16.582Z,20.30
